Aquinnah, MA

1:26 AM EDT on April 21, 2015 (GMT -0400)
New Bedford Regional | | Change Station
CLOSE
Current Station
Airport
Location: New Bedford,
Elevation: 79 ft
Nearby Weather Stations

Elev 79 ft 41.68 °N, 70.96 °W | Updated 5 minutes ago

Fog
Fog
54 °F
Feels Like 54 °F
N
17
Wind Variable Wind from SSE
Gusts 25 mph

Today
High -- | Low -- °F
--% Chance of Precip.
Yesterday
High -- | Low -- °F
Precip. -- in
5:54 AM 7:29 PM
Waxing Crescent, 8% visible
Pressure 29.67 in
Visibility 1.8 miles
Clouds Overcast 200 ft
Dew Point 54 °F
Humidity 100%
Rainfall 0.00 in
Snow Depth Not available.
UV 0 out of 12
Pollen 5.60 out of 12
Air Quality Not available.
Flu Activity Widespread
SPECI KEWB 210521Z AUTO 16015G22KT 1 3/4SM BR OVC002 12/12 A2967 RMK AO2 T01220122

More Conditions Fewer Conditions

Pressure 29.67 in
Visibility 1.8 miles
Clouds Overcast 200 ft
Dew Point 54 °F
Humidity 100%
Rainfall 0.00 in
Snow Depth Not available.
UV 0 out of 12
Pollen 5.60 out of 12
Air Quality Not available.
Flu Activity Widespread
SPECI KEWB 210521Z AUTO 16015G22KT 1 3/4SM BR OVC002 12/12 A2967 RMK AO2 T01220122

More Conditions Fewer Conditions

10-Day Weather Forecast

Almanac

Astronomy

Apr. 21, 2015 Rise Set
Actual Time
Civil Twilight
Nautical Twilight
Astronomical Twilight
Moon
Length of Visible Light
Length of Day
Tomorrow will be .
, % of the Moon is Illuminated

Today's Extremes

State Highs State Lows

Community

WunderPhotos

Upload Photos

1,815,316 photos uploaded!

WunderBlogs® & News

Nearby

Air Quality

  Air Quality AQ Index Pollutant
Not available.

Snow Depth

Station Depth Elevation

Earthquake Activity

City Distance Mag. Time & Date
Minimum magnitude displayed is 2.5.

Coastal Water Temperatures

Place Temperature

Stations

Nearby Weather Stations

Station Location Temp. Windchill Dew Point Humidity Wind Precip. Elev Updated Type